ADDS METAR Data INFO
IDs: Format: Raw Decoded Include TAF

Data at: 0029 UTC 23 Oct 2017

KCWI 222356Z AUTO 00000KT 10SM CLR 11/10 A3008 RMK AO2 SLP213 60003 T01060100 10117 20106 53006
KCWI 222256Z AUTO 00000KT 10SM CLR 11/10 A3006 RMK AO2 RAE25 SLP207 P0000 T01110100
KCWI 222156Z AUTO 00000KT 10SM -RA SCT046 BKN065 OVC110 12/09 A3007 RMK AO2 SLP208 P0001 T01170089
KCWI 222056Z AUTO 32005KT 10SM -RA FEW014 BKN060 OVC075 12/10 A3006 RMK AO2 SLP204 P0002 60002 T01170100 51013
KCWI 221956Z AUTO 33006KT 10SM -RA OVC075 11/09 A3005 RMK AO2 RAB1857 SLP199 P0000 T01110094
KCWI 221856Z AUTO 32007KT 10SM OVC055 12/09 A3004 RMK AO2 SLP195 T01170089
KCWI 221756Z AUTO 01010KT 10SM OVC047 11/09 A3002 RMK AO2 RAE33 SLP189 P0000 60005 T01110089 10128 20111 50016
KCWI 221656Z AUTO 33010G16KT 10SM -RA OVC039 12/09 A3004 RMK AO2 RAE22B56 SLP196 P0000 T01170094
KCWI 221556Z AUTO 32013KT 10SM -RA OVC033 12/10 A3000 RMK AO2 RAB54 SLP182 P0000 T01170100
KCWI 221536Z AUTO 31009KT 10SM OVC033 12/11 A3000 RMK AO2
KCWI 221456Z AUTO 33012KT 10SM SCT011 OVC027 12/11 A2997 RMK AO2 RAE32 SLP172 P0002 60005 T01220106 53020
KCWI 221439Z AUTO 33011KT 10SM BKN011 OVC027 12/11 A2998 RMK AO2 RAE32 P0002
KCWI 221356Z AUTO 34009KT 8SM -RA FEW011 OVC025 12/11 A2995 RMK AO2 RAB39 SLP165 P0003 T01220111
KCWI 221333Z AUTO 32006KT 10SM FEW007 OVC025 13/11 A2995 RMK AO2
KCWI 221256Z AUTO 33008KT 10SM BKN007 OVC020 13/12 A2993 RMK AO2 RAE12 CIG 006V011 SLP156 P0000 T01280122
KCWI 221156Z AUTO 32008KT 10SM -RA BKN007 BKN015 OVC047 13/12 A2991 RMK AO2 CIG 005V010 SLP150 P0003 60030 70030 T01280122 10211 20128 53014
KCWI 221112Z AUTO 32012KT 10SM -RA OVC007 14/13 A2991 RMK AO2 P0001
KCWI 221056Z AUTO 32012KT 9SM -RA OVC005 14/13 A2991 RMK AO2 CIG 003V010 SLP147 P0024 T01390133
KCWI 221032Z AUTO 30010G17KT 8SM -RA BKN005 OVC022 15/15 A2989 RMK AO2 LTG DSNT E AND SE CIG 003V008 P0021
KCWI 221014Z AUTO 29007KT 5SM +RA BR BKN007 OVC022 16/16 A2988 RMK AO2 LTG DSNT E AND SE P0010
KCWI 220956Z AUTO 31006KT 10SM -RA SCT007 OVC022 16/16 A2987 RMK AO2 RAB03 SLP131 P0002 T01610156
KCWI 220953Z AUTO 30005KT 10SM -RA SCT007 OVC022 16/16 A2987 RMK AO2 RAB03 P0002
KCWI 220919Z AUTO 30004KT 10SM -RA BKN024 OVC031 16/16 A2987 RMK AO2 RAB03 P0002
KCWI 220856Z AUTO 30004KT 10SM SCT026 OVC031 16/15 A2987 RMK AO2 RAE40 SLP133 P0000 60001 T01610150 58001
KCWI 220756Z AUTO 29009KT 6SM RA OVC031 18/15 A2988 RMK AO2 RAE38B54 SLP134 P0001 T01780150
KCWI 220656Z AUTO 22006KT 10SM -RA OVC033 20/14 A2988 RMK AO2 WSHFT 0550 RAB53 SLP134 P0000 T02000144
KCWI 220615Z AUTO 25014G22KT 10SM BKN033 OVC100 21/15 A2990 RMK AO2 WSHFT 0550
KCWI 220556Z AUTO 18014G20KT 10SM FEW040 SCT049 OVC100 21/15 A2988 RMK AO2 RAB40E51 SLP132 P0000 60000 T02060150 10228 20200 58006
KCWI 220456Z AUTO 16014KT 10SM CLR 20/15 A2988 RMK AO2 SLP135 T02000150 402610161
KCWI 220356Z AUTO 16010KT 10SM BKN045 21/16 A2991 RMK AO2 SLP144 T02060156
KCWI 220256Z AUTO 16012KT 10SM CLR 21/16 A2990 RMK AO2 SLP141 T02110156 55006
KCWI 220156Z AUTO 17014KT 10SM CLR 21/16 A2988 RMK AO2 SLP137 T02110161
KCWI 220056Z AUTO 16013KT 10SM CLR 22/16 A2990 RMK AO2 SLP142 T02170161
KCWI 212356Z AUTO 18012KT 10SM SCT047 BKN080 23/16 A2991 RMK AO2 SLP147 T02280161 10261 20228 53008
KCWI 212256Z AUTO 17010KT 10SM OVC075 24/16 A2990 RMK AO2 SLP141 T02390161
KCWI 212156Z AUTO 18013KT 10SM OVC055 24/16 A2989 RMK AO2 SLP140 T02440161
KCWI 212056Z AUTO 17016KT 10SM BKN048 26/16 A2989 RMK AO2 SLP136 T02610161 56010
KCWI 211956Z AUTO 18015G23KT 10SM CLR 26/16 A2989 RMK AO2 PK WND 17026/1858 SLP138 T02560156
KCWI 211856Z AUTO 18018G22KT 10SM CLR 26/16 A2990 RMK AO2 SLP140 T02560156
KCWI 211756Z AUTO 18018KT 10SM CLR 24/15 A2992 RMK AO2 SLP147 T02440150 10244 20172 58020
KCWI 211556Z AUTO 18013KT 10SM CLR 21/13 A2996 RMK AO2 SLP165 T02110133
KCWI 211456Z AUTO 18014KT 10SM CLR 19/12 A2998 RMK AO2 SLP171 T01940122 53003
KCWI 211356Z AUTO 17012KT 10SM SCT100 18/12 A2997 RMK AO2 SLP169 T01830122
KCWI 211256Z AUTO 18011KT 10SM SCT050 OVC100 17/11 A2996 RMK AO2 SLP166 T01720111